Check out our new BloomSky Weather System.

Active alerts


No alerts


Thunder radar  blitzortung!


Rain radar more information rain snow radar


Visit our other weather sites:

Template documentation
and downloads

And another site



Weather Underground History page Text

Daily Summary for February 11, 2018 Units:  English    Metric   Both
« Previous Day
Next Day »
Daily Weekly Monthly Yearly Custom
  High: Low: Average:
Temperature: TemperatureF °F 36.7 °F 39.3 °F
Dew Point: DewpointF °F 32.0 °F 36.2 °F
Humidity: Humidity % 77 % 89 %
Wind Speed: WindSpeedMPH mph 0.0 mph 4.7 mph
Wind Gust: WindSpeedGustMPH mph - -
Wind:- - WNW
Pressure: PressureIn in 29.90 in -
Precipitation: 0.00 in    
Historical Graphs
 
 
Tabular Data for February 11, 2018
Time Temperature Dew Point Pressure Wind Wind Speed Wind Gust Humidity Rainfall Rate (Hourly)
TemperatureF °F DewpointF °F PressureIn in Calm     Humidity % HourlyPrecipIn in
00:00 45.1 °F 44.6 °F 29.91 in NW 4.0 mph 8.0 mph 98 % 0.00 in
00:05 45.1 °F 44.6 °F 29.91 in NNW 2.0 mph 6.0 mph 98 % 0.00 in
00:10 45.1 °F 44.6 °F 29.90 in NNW 5.0 mph 8.0 mph 98 % 0.00 in
00:15 45.0 °F 44.4 °F 29.91 in NW 5.0 mph 8.0 mph 98 % 0.00 in
00:20 45.0 °F 44.4 °F 29.91 in NW 4.0 mph 8.0 mph 98 % 0.00 in
00:25 44.8 °F 44.2 °F 29.91 in NW 3.0 mph 8.0 mph 98 % 0.00 in
00:30 44.8 °F 44.2 °F 29.91 in NNW 4.0 mph 7.0 mph 98 % 0.00 in
00:35 44.4 °F 43.9 °F 29.91 in NNW 3.0 mph 7.0 mph 98 % 0.00 in
00:40 44.4 °F 43.9 °F 29.91 in NNW 5.0 mph 7.0 mph 98 % 0.00 in
00:45 44.1 °F 43.5 °F 29.91 in NNW 3.0 mph 9.0 mph 98 % 0.00 in
00:50 44.1 °F 43.5 °F 29.91 in NNW 2.0 mph 9.0 mph 98 % 0.00 in
00:55 44.1 °F 43.5 °F 29.91 in NW 3.0 mph 9.0 mph 98 % 0.00 in
01:00 44.1 °F 43.5 °F 29.91 in NNW 4.0 mph 8.0 mph 98 % 0.00 in
01:05 43.9 °F 43.3 °F 29.91 in NW 5.0 mph 8.0 mph 98 % 0.00 in
01:10 43.9 °F 43.3 °F 29.92 in NW 1.0 mph 7.0 mph 98 % 0.00 in
01:15 43.9 °F 43.7 °F 29.92 in NW 2.0 mph 7.0 mph 99 % 0.00 in
01:20 44.1 °F 43.9 °F 29.92 in NNW 4.0 mph 5.0 mph 99 % 0.00 in
01:25 44.1 °F 43.9 °F 29.92 in NNE 5.0 mph 6.0 mph 99 % 0.00 in
01:30 43.9 °F 43.7 °F 29.92 in NW 3.0 mph 6.0 mph 99 % 0.00 in
01:35 43.9 °F 43.7 °F 29.92 in NW 5.0 mph 6.0 mph 99 % 0.00 in
01:40 43.9 °F 43.7 °F 29.92 in NW 3.0 mph 6.0 mph 99 % 0.00 in
01:45 43.9 °F 43.7 °F 29.92 in WNW 3.0 mph 6.0 mph 99 % 0.00 in
01:50 43.9 °F 43.7 °F 29.92 in NW 2.0 mph 6.0 mph 99 % 0.00 in
01:55 43.9 °F 43.7 °F 29.92 in NW 4.0 mph 6.0 mph 99 % 0.00 in
02:00 43.7 °F 43.5 °F 29.92 in NNW 1.0 mph 6.0 mph 99 % 0.00 in
02:05 43.7 °F 43.5 °F 29.92 in NNW 3.0 mph 5.0 mph 99 % 0.00 in
02:10 43.7 °F 43.5 °F 29.92 in NNW 3.0 mph 6.0 mph 99 % 0.00 in
02:15 43.7 °F 43.5 °F 29.92 in NW 5.0 mph 6.0 mph 99 % 0.00 in
02:20 43.5 °F 43.3 °F 29.92 in NNW 1.0 mph 6.0 mph 99 % 0.00 in
02:25 43.5 °F 43.3 °F 29.92 in NNW 5.0 mph 7.0 mph 99 % 0.00 in
02:30 43.3 °F 43.2 °F 29.92 in WNW 4.0 mph 8.0 mph 99 % 0.00 in
02:35 43.3 °F 43.2 °F 29.92 in NW 2.0 mph 8.0 mph 99 % 0.00 in
02:40 43.3 °F 43.2 °F 29.92 in NNE 4.0 mph 8.0 mph 99 % 0.00 in
02:45 43.2 °F 43.0 °F 29.92 in NNW 5.0 mph 8.0 mph 99 % 0.00 in
02:50 43.2 °F 43.0 °F 29.93 in WNW 8.0 mph 8.0 mph 99 % 0.00 in
02:55 43.0 °F 42.8 °F 29.93 in NW 3.0 mph 10.0 mph 99 % 0.00 in
03:00 43.2 °F 43.0 °F 29.94 in WNW 3.0 mph 10.0 mph 99 % 0.00 in
03:05 43.0 °F 42.8 °F 29.94 in NW 3.0 mph 10.0 mph 99 % 0.00 in
03:10 42.8 °F 42.6 °F 29.94 in NNW 8.0 mph 8.0 mph 99 % 0.00 in
03:15 42.6 °F 42.4 °F 29.94 in NW 5.0 mph 9.0 mph 99 % 0.00 in
03:20 42.6 °F 42.4 °F 29.94 in WNW 4.0 mph 12.0 mph 99 % 0.00 in
03:25 42.4 °F 42.3 °F 29.94 in NW 4.0 mph 12.0 mph 99 % 0.00 in
03:30 42.4 °F 42.3 °F 29.94 in NNW 3.0 mph 12.0 mph 99 % 0.00 in
03:35 42.4 °F 42.3 °F 29.94 in NW 6.0 mph 10.0 mph 99 % 0.00 in
03:40 42.4 °F 42.3 °F 29.93 in NW 3.0 mph 10.0 mph 99 % 0.00 in
03:45 42.4 °F 42.3 °F 29.93 in NNW 5.0 mph 10.0 mph 99 % 0.00 in
03:50 42.3 °F 42.1 °F 29.94 in NNW 5.0 mph 10.0 mph 99 % 0.00 in
03:55 42.3 °F 42.1 °F 29.94 in NNW 3.0 mph 10.0 mph 99 % 0.00 in
04:00 42.3 °F 42.1 °F 29.94 in NNW 4.0 mph 10.0 mph 99 % 0.00 in
04:05 42.1 °F 41.9 °F 29.94 in NW 5.0 mph 10.0 mph 99 % 0.00 in
04:10 42.1 °F 41.5 °F 29.94 in NW 6.0 mph 10.0 mph 98 % 0.00 in
04:15 41.7 °F 41.2 °F 29.93 in WNW 4.0 mph 12.0 mph 98 % 0.00 in
04:20 41.5 °F 41.0 °F 29.94 in NNW 4.0 mph 12.0 mph 98 % 0.00 in
04:25 41.5 °F 41.0 °F 29.95 in NNW 6.0 mph 12.0 mph 98 % 0.00 in
04:31 41.4 °F 41.2 °F 29.95 in North 4.0 mph 10.0 mph 99 % 0.00 in
04:36 41.4 °F 41.2 °F 29.96 in North 3.0 mph 10.0 mph 99 % 0.00 in
04:41 41.2 °F 41.0 °F 29.96 in WNW 2.0 mph 9.0 mph 99 % 0.00 in
04:46 41.2 °F 40.6 °F 29.96 in NNW 5.0 mph 10.0 mph 98 % 0.00 in
04:51 40.6 °F 40.1 °F 29.96 in West 4.0 mph 11.0 mph 98 % 0.00 in
04:56 40.5 °F 39.9 °F 29.96 in NNW 4.0 mph 11.0 mph 98 % 0.00 in
05:01 40.3 °F 39.7 °F 29.96 in WNW 6.0 mph 15.0 mph 98 % 0.00 in
05:06 39.9 °F 39.4 °F 29.96 in WNW 5.0 mph 15.0 mph 98 % 0.00 in
05:11 39.9 °F 39.4 °F 29.96 in NW 5.0 mph 15.0 mph 98 % 0.00 in
05:16 39.9 °F 39.4 °F 29.96 in NW 5.0 mph 12.0 mph 98 % 0.00 in
05:21 39.9 °F 39.4 °F 29.96 in NNW 2.0 mph 12.0 mph 98 % 0.00 in
05:26 39.9 °F 39.4 °F 29.96 in North 4.0 mph 10.0 mph 98 % 0.00 in
05:31 39.9 °F 39.4 °F 29.96 in NW 7.0 mph 10.0 mph 98 % 0.00 in
05:36 39.7 °F 39.0 °F 29.96 in WNW 3.0 mph 11.0 mph 97 % 0.00 in
05:41 39.7 °F 39.0 °F 29.97 in WNW 6.0 mph 11.0 mph 97 % 0.00 in
05:46 39.6 °F 38.8 °F 29.97 in NW 7.0 mph 11.0 mph 97 % 0.00 in
05:51 39.6 °F 38.8 °F 29.97 in NNE 8.0 mph 13.0 mph 97 % 0.00 in
05:56 39.6 °F 38.8 °F 29.97 in WNW 6.0 mph 13.0 mph 97 % 0.00 in
06:01 39.6 °F 38.8 °F 29.97 in NW 2.0 mph 13.0 mph 97 % 0.00 in
06:06 39.6 °F 38.8 °F 29.97 in NNW 5.0 mph 13.0 mph 97 % 0.00 in
06:11 39.6 °F 38.8 °F 29.97 in NW 4.0 mph 13.0 mph 97 % 0.00 in
06:16 39.6 °F 38.8 °F 29.98 in North 7.0 mph 13.0 mph 97 % 0.00 in
06:21 39.6 °F 38.8 °F 29.98 in NNW 7.0 mph 13.0 mph 97 % 0.00 in
06:26 39.6 °F 38.8 °F 29.98 in NNW 7.0 mph 10.0 mph 97 % 0.00 in
06:31 39.6 °F 38.8 °F 29.99 in NW 4.0 mph 10.0 mph 97 % 0.00 in
06:36 39.6 °F 38.8 °F 29.99 in WNW 4.0 mph 10.0 mph 97 % 0.00 in
06:41 39.6 °F 38.8 °F 30.00 in North 9.0 mph 10.0 mph 97 % 0.00 in
06:46 39.4 °F 38.3 °F 30.00 in NNW 4.0 mph 13.0 mph 96 % 0.00 in
06:51 39.4 °F 38.7 °F 30.00 in NNW 3.0 mph 13.0 mph 97 % 0.00 in
06:56 39.4 °F 38.3 °F 30.01 in NW 7.0 mph 13.0 mph 96 % 0.00 in
07:01 39.2 °F 38.1 °F 30.01 in NW 4.0 mph 10.0 mph 96 % 0.00 in
07:06 39.0 °F 37.9 °F 30.00 in NW 7.0 mph 12.0 mph 96 % 0.00 in
07:11 39.0 °F 37.9 °F 30.01 in NNW 9.0 mph 13.0 mph 96 % 0.00 in
07:16 39.0 °F 37.9 °F 30.01 in NNW 2.0 mph 13.0 mph 96 % 0.00 in
07:21 39.0 °F 37.9 °F 30.02 in NNW 6.0 mph 13.0 mph 96 % 0.00 in
07:26 38.8 °F 37.6 °F 30.02 in NW 4.0 mph 13.0 mph 95 % 0.00 in
07:31 38.8 °F 37.6 °F 30.03 in NNE 3.0 mph 12.0 mph 95 % 0.00 in
07:36 38.8 °F 37.6 °F 30.02 in NNW 8.0 mph 12.0 mph 95 % 0.00 in
07:41 38.7 °F 37.0 °F 30.03 in NNW 4.0 mph 14.0 mph 94 % 0.00 in
07:46 38.8 °F 37.2 °F 30.04 in NW 5.0 mph 14.0 mph 94 % 0.00 in
07:51 38.7 °F 37.0 °F 30.04 in NNW 5.0 mph 14.0 mph 94 % 0.00 in
07:56 38.7 °F 37.0 °F 30.04 in WNW 4.0 mph 11.0 mph 94 % 0.00 in
08:01 38.7 °F 37.0 °F 30.04 in NW 7.0 mph 11.0 mph 94 % 0.00 in
08:06 38.7 °F 37.0 °F 30.05 in NW 3.0 mph 11.0 mph 94 % 0.00 in
08:11 38.7 °F 36.9 °F 30.05 in NNW 7.0 mph 12.0 mph 93 % 0.00 in
08:16 38.5 °F 36.7 °F 30.05 in North 3.0 mph 12.0 mph 93 % 0.00 in
08:21 38.5 °F 36.7 °F 30.06 in NNE 6.0 mph 12.0 mph 93 % 0.00 in
08:26 38.5 °F 36.7 °F 30.06 in NW 9.0 mph 11.0 mph 93 % 0.00 in
08:31 38.5 °F 36.7 °F 30.06 in NNW 2.0 mph 13.0 mph 93 % 0.00 in
08:36 38.5 °F 36.7 °F 30.06 in NW 1.0 mph 13.0 mph 93 % 0.00 in
08:41 38.5 °F 36.7 °F 30.06 in NW 6.0 mph 13.0 mph 93 % 0.00 in
08:46 38.5 °F 36.3 °F 30.07 in NW 11.0 mph 15.0 mph 92 % 0.00 in
08:51 38.3 °F 36.5 °F 30.07 in NNW 2.0 mph 16.0 mph 93 % 0.00 in
08:56 38.1 °F 36.3 °F 30.07 in NNW 8.0 mph 16.0 mph 93 % 0.00 in
09:01 38.3 °F 36.5 °F 30.07 in NW 5.0 mph 16.0 mph 93 % 0.00 in
09:06 38.3 °F 36.5 °F 30.08 in NW 7.0 mph 14.0 mph 93 % 0.00 in
09:11 38.1 °F 36.0 °F 30.09 in NW 8.0 mph 14.0 mph 92 % 0.00 in
09:16 38.1 °F 35.8 °F 30.09 in NNW 8.0 mph 14.0 mph 91 % 0.00 in
09:21 38.3 °F 36.0 °F 30.09 in NW 6.0 mph 14.0 mph 91 % 0.00 in
09:26 38.3 °F 36.0 °F 30.09 in NW 4.0 mph 14.0 mph 91 % 0.00 in
09:31 38.3 °F 36.0 °F 30.09 in NW 1.0 mph 14.0 mph 91 % 0.00 in
09:36 38.5 °F 36.1 °F 30.09 in NE 2.0 mph 14.0 mph 91 % 0.00 in
09:41 38.7 °F 36.3 °F 30.09 in NNW 3.0 mph 14.0 mph 91 % 0.00 in
09:46 38.7 °F 36.0 °F 30.09 in North 6.0 mph 12.0 mph 90 % 0.00 in
09:51 38.7 °F 36.0 °F 30.09 in NNW 5.0 mph 12.0 mph 90 % 0.00 in
09:56 38.7 °F 36.0 °F 30.09 in NW 4.0 mph 14.0 mph 90 % 0.00 in
10:01 38.8 °F 36.5 °F 30.09 in WNW 6.0 mph 14.0 mph 91 % 0.00 in
10:06 38.7 °F 36.0 °F 30.09 in NW 8.0 mph 15.0 mph 90 % 0.00 in
10:11 38.7 °F 36.3 °F 30.10 in West 1.0 mph 15.0 mph 91 % 0.00 in
10:16 38.8 °F 36.5 °F 30.11 in WNW 5.0 mph 15.0 mph 91 % 0.00 in
10:21 38.5 °F 36.1 °F 30.11 in NW 1.0 mph 15.0 mph 91 % 0.00 in
10:23 38.7 °F 36.3 °F 30.11 in NNW 5.0 mph 15.0 mph 91 % 0.00 in
10:28 38.5 °F 36.3 °F 30.11 in NNW 2.0 mph 13.0 mph 92 % 0.00 in
10:33 38.5 °F 36.3 °F 30.11 in NW 3.0 mph 13.0 mph 92 % 0.00 in
10:38 38.5 °F 36.3 °F 30.11 in North 5.0 mph 10.0 mph 92 % 0.00 in
10:43 38.1 °F 36.0 °F 30.11 in NW 3.0 mph 11.0 mph 92 % 0.00 in
10:48 37.9 °F 36.1 °F 30.11 in NW 5.0 mph 12.0 mph 93 % 0.00 in
10:53 37.9 °F 36.1 °F 30.11 in NNW 4.0 mph 12.0 mph 93 % 0.00 in
10:58 37.9 °F 35.8 °F 30.12 in NW 5.0 mph 12.0 mph 92 % 0.00 in
11:03 38.1 °F 36.0 °F 30.12 in NW 5.0 mph 12.0 mph 92 % 0.00 in
11:08 38.5 °F 36.1 °F 30.11 in WNW 9.0 mph 14.0 mph 91 % 0.00 in
11:13 38.7 °F 36.0 °F 30.12 in NNW 3.0 mph 14.0 mph 90 % 0.00 in
11:18 38.8 °F 36.1 °F 30.11 in North 3.0 mph 14.0 mph 90 % 0.00 in
11:23 39.0 °F 36.1 °F 30.12 in NNW 2.0 mph 13.0 mph 89 % 0.00 in
11:28 39.0 °F 35.8 °F 30.12 in WSW 6.0 mph 11.0 mph 88 % 0.00 in
11:33 38.7 °F 35.4 °F 30.12 in North 8.0 mph 11.0 mph 88 % 0.00 in
11:38 38.7 °F 35.8 °F 30.12 in NNW 5.0 mph 13.0 mph 89 % 0.00 in
11:43 38.7 °F 35.4 °F 30.12 in WNW 3.0 mph 13.0 mph 88 % 0.00 in
11:48 38.8 °F 36.0 °F 30.12 in NW 5.0 mph 13.0 mph 89 % 0.00 in
11:53 39.0 °F 35.4 °F 30.12 in WNW 6.0 mph 14.0 mph 87 % 0.00 in
11:58 39.0 °F 35.4 °F 30.11 in NW 8.0 mph 14.0 mph 87 % 0.00 in
12:03 39.0 °F 35.4 °F 30.11 in North 6.0 mph 14.0 mph 87 % 0.00 in
12:08 39.4 °F 35.8 °F 30.11 in NNW 5.0 mph 12.0 mph 87 % 0.00 in
12:13 39.6 °F 36.0 °F 30.11 in NNW 3.0 mph 12.0 mph 87 % 0.00 in
12:18 39.4 °F 35.6 °F 30.11 in NNW 7.0 mph 12.0 mph 86 % 0.00 in
12:23 39.0 °F 35.2 °F 30.11 in WNW 8.0 mph 12.0 mph 86 % 0.00 in
12:28 39.0 °F 35.2 °F 30.11 in NNW 5.0 mph 15.0 mph 86 % 0.00 in
12:33 39.0 °F 35.2 °F 30.11 in NW 3.0 mph 16.0 mph 86 % 0.00 in
12:38 39.4 °F 35.2 °F 30.11 in NNW 5.0 mph 16.0 mph 85 % 0.00 in
12:43 39.6 °F 35.4 °F 30.11 in WNW 4.0 mph 16.0 mph 85 % 0.00 in
12:48 39.6 °F 35.4 °F 30.11 in NW 4.0 mph 13.0 mph 85 % 0.00 in
12:53 39.6 °F 35.4 °F 30.11 in West 6.0 mph 12.0 mph 85 % 0.00 in
12:58 39.4 °F 35.2 °F 30.11 in NW 7.0 mph 12.0 mph 85 % 0.00 in
13:03 39.4 °F 35.2 °F 30.11 in NW 8.0 mph 14.0 mph 85 % 0.00 in
13:08 39.4 °F 35.2 °F 30.10 in NW 5.0 mph 16.0 mph 85 % 0.00 in
13:13 39.2 °F 35.1 °F 30.10 in NNW 4.0 mph 16.0 mph 85 % 0.00 in
13:18 39.2 °F 35.1 °F 30.10 in NW 4.0 mph 16.0 mph 85 % 0.00 in
13:23 39.0 °F 34.9 °F 30.09 in NW 2.0 mph 13.0 mph 85 % 0.00 in
13:28 38.8 °F 34.7 °F 30.09 in NW 8.0 mph 13.0 mph 85 % 0.00 in
13:33 38.5 °F 34.7 °F 30.09 in NW 6.0 mph 14.0 mph 86 % 0.00 in
13:38 38.3 °F 34.5 °F 30.09 in NNW 4.0 mph 14.0 mph 86 % 0.00 in
13:43 38.7 °F 35.1 °F 30.09 in NNW 5.0 mph 14.0 mph 87 % 0.00 in
13:48 38.5 °F 34.3 °F 30.10 in NW 4.0 mph 13.0 mph 85 % 0.00 in
13:53 38.5 °F 34.2 °F 30.09 in WSW 4.0 mph 13.0 mph 84 % 0.00 in
13:58 38.3 °F 34.2 °F 30.10 in North 4.0 mph 16.0 mph 85 % 0.00 in
14:03 38.5 °F 34.2 °F 30.10 in WNW 12.0 mph 16.0 mph 84 % 0.00 in
14:08 38.3 °F 34.0 °F 30.10 in NNW 6.0 mph 16.0 mph 84 % 0.00 in
14:13 38.3 °F 34.0 °F 30.10 in NW 14.0 mph 16.0 mph 84 % 0.00 in
14:18 38.1 °F 33.8 °F 30.10 in NNW 6.0 mph 16.0 mph 84 % 0.00 in
14:23 38.5 °F 34.2 °F 30.10 in NNW 3.0 mph 15.0 mph 84 % 0.00 in
14:28 38.5 °F 33.8 °F 30.10 in West 4.0 mph 15.0 mph 83 % 0.00 in
14:33 38.5 °F 33.8 °F 30.11 in NW 4.0 mph 17.0 mph 83 % 0.00 in
14:38 38.5 °F 33.8 °F 30.11 in North 7.0 mph 17.0 mph 83 % 0.00 in
14:43 38.3 °F 33.3 °F 30.11 in NW 7.0 mph 17.0 mph 82 % 0.00 in
14:48 38.3 °F 33.3 °F 30.11 in WNW 7.0 mph 12.0 mph 82 % 0.00 in
14:53 38.1 °F 33.1 °F 30.12 in NNW 7.0 mph 15.0 mph 82 % 0.00 in
14:59 38.1 °F 33.1 °F 30.12 in North 8.0 mph 15.0 mph 82 % 0.00 in
15:04 38.3 °F 32.9 °F 30.12 in NW 8.0 mph 15.0 mph 81 % 0.00 in
15:09 38.5 °F 33.1 °F 30.12 in NNE 9.0 mph 14.0 mph 81 % 0.00 in
15:14 38.5 °F 32.9 °F 30.12 in NW 5.0 mph 14.0 mph 80 % 0.00 in
15:19 38.7 °F 33.1 °F 30.12 in WNW 9.0 mph 14.0 mph 80 % 0.00 in
15:24 38.7 °F 33.1 °F 30.13 in NNW 7.0 mph 13.0 mph 80 % 0.00 in
15:29 38.8 °F 33.3 °F 30.13 in NNW 2.0 mph 13.0 mph 80 % 0.00 in
15:34 38.8 °F 32.9 °F 30.13 in NNW 7.0 mph 14.0 mph 79 % 0.00 in
15:39 38.8 °F 32.9 °F 30.13 in NW 6.0 mph 14.0 mph 79 % 0.00 in
15:44 38.8 °F 32.9 °F 30.13 in NW 4.0 mph 14.0 mph 79 % 0.00 in
15:49 38.8 °F 32.9 °F 30.13 in NNE 8.0 mph 13.0 mph 79 % 0.00 in
15:54 38.7 °F 32.7 °F 30.13 in NW 4.0 mph 15.0 mph 79 % 0.00 in
15:59 38.7 °F 32.7 °F 30.12 in WNW 6.0 mph 15.0 mph 79 % 0.00 in
16:04 38.8 °F 32.9 °F 30.12 in North 9.0 mph 15.0 mph 79 % 0.00 in
16:09 38.7 °F 32.7 °F 30.12 in North 9.0 mph 12.0 mph 79 % 0.00 in
16:14 38.5 °F 32.9 °F 30.11 in NNW 10.0 mph 12.0 mph 80 % 0.00 in
16:19 38.5 °F 32.9 °F 30.12 in NNW 3.0 mph 13.0 mph 80 % 0.00 in
16:24 38.5 °F 32.9 °F 30.12 in NW 4.0 mph 13.0 mph 80 % 0.00 in
16:29 38.5 °F 32.9 °F 30.12 in NW 7.0 mph 13.0 mph 80 % 0.00 in
16:34 38.5 °F 32.5 °F 30.13 in West 8.0 mph 12.0 mph 79 % 0.00 in
16:39 38.7 °F 33.1 °F 30.13 in NW 5.0 mph 12.0 mph 80 % 0.00 in
16:44 38.8 °F 32.9 °F 30.13 in North 5.0 mph 12.0 mph 79 % 0.00 in
16:49 38.8 °F 32.5 °F 30.14 in NNW 2.0 mph 11.0 mph 78 % 0.00 in
16:54 38.8 °F 32.5 °F 30.14 in NNW 7.0 mph 13.0 mph 78 % 0.00 in
16:59 38.8 °F 32.5 °F 30.14 in NW 5.0 mph 13.0 mph 78 % 0.00 in
17:04 38.8 °F 32.5 °F 30.14 in NW 6.0 mph 15.0 mph 78 % 0.00 in
17:09 38.8 °F 32.5 °F 30.14 in WNW 5.0 mph 15.0 mph 78 % 0.00 in
17:14 38.7 °F 32.4 °F 30.14 in NW 6.0 mph 15.0 mph 78 % 0.00 in
17:19 38.8 °F 32.5 °F 30.13 in NW 4.0 mph 14.0 mph 78 % 0.00 in
17:24 38.8 °F 32.5 °F 30.13 in NW 4.0 mph 14.0 mph 78 % 0.00 in
17:29 38.8 °F 32.5 °F 30.14 in WNW 7.0 mph 15.0 mph 78 % 0.00 in
17:34 38.7 °F 32.0 °F 30.14 in NW 10.0 mph 15.0 mph 77 % 0.00 in
17:39 38.7 °F 32.4 °F 30.15 in NW 5.0 mph 15.0 mph 78 % 0.00 in
17:44 38.7 °F 32.4 °F 30.15 in NW 5.0 mph 14.0 mph 78 % 0.00 in
17:49 38.7 °F 32.4 °F 30.16 in NNW 7.0 mph 13.0 mph 78 % 0.00 in
17:54 38.7 °F 32.4 °F 30.15 in NW 5.0 mph 13.0 mph 78 % 0.00 in
17:59 38.7 °F 32.4 °F 30.15 in NNW 4.0 mph 13.0 mph 78 % 0.00 in
18:04 38.7 °F 32.4 °F 30.15 in NW 4.0 mph 13.0 mph 78 % 0.00 in
18:09 38.8 °F 32.5 °F 30.16 in NW 4.0 mph 13.0 mph 78 % 0.00 in
18:14 38.8 °F 32.5 °F 30.17 in NW 5.0 mph 13.0 mph 78 % 0.00 in
18:19 38.8 °F 32.5 °F 30.17 in NNW 3.0 mph 11.0 mph 78 % 0.00 in
18:24 38.8 °F 32.5 °F 30.17 in NW 5.0 mph 11.0 mph 78 % 0.00 in
18:29 38.8 °F 32.5 °F 30.17 in North 3.0 mph 13.0 mph 78 % 0.00 in
18:34 38.8 °F 32.5 °F 30.18 in NW 4.0 mph 13.0 mph 78 % 0.00 in
18:39 38.8 °F 32.5 °F 30.18 in NNW 5.0 mph 13.0 mph 78 % 0.00 in
18:44 38.8 °F 32.9 °F 30.18 in NNW 4.0 mph 11.0 mph 79 % 0.00 in
18:49 38.8 °F 32.9 °F 30.18 in North 6.0 mph 11.0 mph 79 % 0.00 in
18:54 38.8 °F 32.9 °F 30.19 in NNW 3.0 mph 12.0 mph 79 % 0.00 in
18:59 38.8 °F 32.9 °F 30.19 in NNW 6.0 mph 12.0 mph 79 % 0.00 in
19:04 38.8 °F 33.3 °F 30.19 in North 5.0 mph 12.0 mph 80 % 0.00 in
19:09 38.8 °F 32.9 °F 30.20 in NNW 4.0 mph 12.0 mph 79 % 0.00 in
19:14 38.7 °F 32.7 °F 30.20 in North 5.0 mph 9.0 mph 79 % 0.00 in
19:19 38.5 °F 32.9 °F 30.20 in NW 4.0 mph 8.0 mph 80 % 0.00 in
19:24 38.3 °F 32.7 °F 30.20 in WNW 1.0 mph 10.0 mph 80 % 0.00 in
19:29 38.1 °F 32.5 °F 30.21 in North 7.0 mph 10.0 mph 80 % 0.00 in
19:34 38.1 °F 32.5 °F 30.21 in NW 2.0 mph 10.0 mph 80 % 0.00 in
19:39 37.9 °F 32.4 °F 30.21 in NW 7.0 mph 10.0 mph 80 % 0.00 in
19:44 37.9 °F 32.7 °F 30.21 in NNW 4.0 mph 12.0 mph 81 % 0.00 in
19:49 37.9 °F 32.7 °F 30.21 in NW 5.0 mph 12.0 mph 81 % 0.00 in
19:54 37.8 °F 32.5 °F 30.22 in NW 3.0 mph 12.0 mph 81 % 0.00 in
19:59 37.8 °F 32.5 °F 30.22 in North 10.0 mph 10.0 mph 81 % 0.00 in
20:04 37.8 °F 32.5 °F 30.22 in NNW 3.0 mph 15.0 mph 81 % 0.00 in
20:09 37.8 °F 32.7 °F 30.22 in WNW 4.0 mph 15.0 mph 82 % 0.00 in
20:14 37.8 °F 32.7 °F 30.23 in NW 6.0 mph 15.0 mph 82 % 0.00 in
20:19 37.8 °F 32.7 °F 30.23 in WNW 3.0 mph 11.0 mph 82 % 0.00 in
20:24 37.8 °F 33.1 °F 30.23 in NNW 6.0 mph 10.0 mph 83 % 0.00 in
20:29 37.6 °F 32.5 °F 30.23 in NNW 8.0 mph 10.0 mph 82 % 0.00 in
20:34 37.4 °F 32.4 °F 30.24 in NW 4.0 mph 11.0 mph 82 % 0.00 in
20:39 37.4 °F 32.7 °F 30.23 in NNW 3.0 mph 11.0 mph 83 % 0.00 in
20:44 37.4 °F 32.7 °F 30.23 in NNE 8.0 mph 11.0 mph 83 % 0.00 in
20:49 37.6 °F 32.9 °F 30.22 in North 7.0 mph 10.0 mph 83 % 0.00 in
20:54 37.6 °F 32.9 °F 30.22 in North 2.0 mph 10.0 mph 83 % 0.00 in
20:59 37.6 °F 32.9 °F 30.23 in NW 1.0 mph 10.0 mph 83 % 0.00 in
21:04 37.6 °F 32.9 °F 30.24 in NNW 2.0 mph 10.0 mph 83 % 0.00 in
21:09 37.6 °F 32.9 °F 30.25 in NW 4.0 mph 10.0 mph 83 % 0.00 in
21:14 37.4 °F 32.7 °F 30.25 in NNW 6.0 mph 6.0 mph 83 % 0.00 in
21:19 37.2 °F 32.5 °F 30.24 in WNW 3.0 mph 8.0 mph 83 % 0.00 in
21:24 37.2 °F 32.5 °F 30.24 in NNE 5.0 mph 8.0 mph 83 % 0.00 in
21:29 37.2 °F 32.5 °F 30.24 in NW 7.0 mph 10.0 mph 83 % 0.00 in
21:34 37.2 °F 32.5 °F 30.25 in NNW 6.0 mph 10.0 mph 83 % 0.00 in
21:39 37.2 °F 32.9 °F 30.25 in NW 6.0 mph 10.0 mph 84 % 0.00 in
21:44 37.2 °F 32.9 °F 30.25 in NNW 3.0 mph 10.0 mph 84 % 0.00 in
21:49 37.0 °F 32.7 °F 30.25 in NNW 2.0 mph 8.0 mph 84 % 0.00 in
21:54 37.0 °F 32.4 °F 30.25 in North 3.0 mph 8.0 mph 83 % 0.00 in
21:59 37.0 °F 32.4 °F 30.25 in NNW 4.0 mph 9.0 mph 83 % 0.00 in
22:04 37.0 °F 32.7 °F 30.24 in NNW 2.0 mph 10.0 mph 84 % 0.00 in
22:09 37.0 °F 32.7 °F 30.24 in NW 5.0 mph 10.0 mph 84 % 0.00 in
22:15 37.0 °F 32.7 °F 30.25 in NW 4.0 mph 10.0 mph 84 % 0.00 in
22:19 37.0 °F 32.7 °F 30.25 in NW 5.0 mph 10.0 mph 84 % 0.00 in
22:24 36.9 °F 32.5 °F 30.25 in NNW 2.0 mph 8.0 mph 84 % 0.00 in
22:30 36.9 °F 32.7 °F 30.24 in NW 10.0 mph 10.0 mph 85 % 0.00 in
22:35 36.9 °F 32.5 °F 30.24 in NW 4.0 mph 10.0 mph 84 % 0.00 in
22:40 37.0 °F 32.9 °F 30.24 in NNW 1.0 mph 10.0 mph 85 % 0.00 in
22:45 37.0 °F 32.9 °F 30.25 in NW 1.0 mph 10.0 mph 85 % 0.00 in
22:50 36.9 °F 32.5 °F 30.25 in NNW 7.0 mph 9.0 mph 84 % 0.00 in
22:55 36.9 °F 32.7 °F 30.25 in NW 1.0 mph 10.0 mph 85 % 0.00 in
23:00 36.9 °F 32.5 °F 30.25 in NW 2.0 mph 10.0 mph 84 % 0.00 in
23:05 36.9 °F 32.5 °F 30.25 in North 5.0 mph 10.0 mph 84 % 0.00 in
23:10 36.9 °F 32.5 °F 30.25 in NW 2.0 mph 9.0 mph 84 % 0.00 in
23:15 36.9 °F 32.5 °F 30.26 in NW 2.0 mph 10.0 mph 84 % 0.00 in
23:20 36.7 °F 32.4 °F 30.26 in NNW 2.0 mph 10.0 mph 84 % 0.00 in
23:25 36.9 °F 32.5 °F 30.27 in NE 3.0 mph 9.0 mph 84 % 0.00 in
23:30 36.9 °F 32.5 °F 30.27 in Calm   9.0 mph 84 % 0.00 in
23:35 36.9 °F 32.5 °F 30.27 in NNW 4.0 mph 8.0 mph 84 % 0.00 in
23:40 36.9 °F 32.5 °F 30.27 in North 5.0 mph 8.0 mph 84 % 0.00 in
23:45 36.9 °F 32.5 °F 30.27 in NW 2.0 mph 8.0 mph 84 % 0.00 in
23:50 36.9 °F 32.5 °F 30.28 in NNW 2.0 mph 8.0 mph 84 % 0.00 in
23:55 36.9 °F 32.5 °F 30.28 in NW 4.0 mph 7.0 mph 84 % 0.00 in
Spring, Texas: Villages of Bridgestone
Compliments of Weather Underground - 2.75 mb

Script developed by  Jim McMurry - jmcmurry@mwt.net Adapted for the template by  Wim van der Kuil - Leuven-Template.eu

You find our weather info also at:

UK Metoffice

WeatherCloud

Weather Underground

Mid-South Weather Network

AWEKAS

Citizen Weather Observer Program (CWOP)

HAMweather, WeatherForYou, PWS Weather

Equipment we use:

Weather-station
Davis Vantage Vue

Weather-program
Meteohub

Weather-server
Debian 7.9 x86 (Guest)

Provider
DreamHost

Davis Vantage Vue

Meteohub

Debian 7.9 x86 (Guest)

DreamHost